createdAt,value
2019-04-07T00:00:41.091Z,27.03
2019-04-07T00:03:08.393Z,24.57
2019-04-07T00:05:36.271Z,25.50
2019-04-07T00:08:04.442Z,25.27
2019-04-07T00:10:31.856Z,29.87
2019-04-07T00:12:59.553Z,25.23
2019-04-07T00:15:27.711Z,25.90
2019-04-07T00:17:55.360Z,24.57
2019-04-07T00:20:23.665Z,24.13
2019-04-07T00:22:51.189Z,25.33
2019-04-07T00:25:18.376Z,25.27
2019-04-07T00:27:45.634Z,24.37
2019-04-07T00:30:14.062Z,27.30
2019-04-07T00:32:42.065Z,27.17
2019-04-07T00:35:21.596Z,33.50
2019-04-07T00:37:38.805Z,26.03
2019-04-07T00:40:06.984Z,32.80
2019-04-07T00:42:34.689Z,24.77
2019-04-07T00:45:02.221Z,28.30
2019-04-07T00:47:29.631Z,26.70
2019-04-07T00:49:57.500Z,26.80
2019-04-07T00:52:24.912Z,27.17
2019-04-07T00:54:52.274Z,25.53
2019-04-07T00:57:19.893Z,26.07
2019-04-07T00:59:47.332Z,29.87
2019-04-07T01:02:14.934Z,28.70
2019-04-07T01:04:42.184Z,30.50
2019-04-07T01:07:09.370Z,26.73
2019-04-07T01:09:36.615Z,29.77
2019-04-07T01:12:04.157Z,30.57
2019-04-07T01:14:32.430Z,28.80
2019-04-07T01:17:00.325Z,30.17
2019-04-07T01:19:28.867Z,27.50
2019-04-07T01:21:56.309Z,26.30
2019-04-07T01:24:24.068Z,27.97
2019-04-07T01:26:51.478Z,30.27
2019-04-07T01:29:18.694Z,32.63
2019-04-07T01:31:45.975Z,28.93
2019-04-07T01:34:13.455Z,29.43
2019-04-07T01:36:42.885Z,25.33
2019-04-07T01:39:11.894Z,25.87
2019-04-07T01:42:13.833Z,28.00
2019-04-07T01:45:03.711Z,30.23
2019-04-07T01:47:38.819Z,28.50
2019-04-07T01:50:28.584Z,29.00
2019-04-07T01:53:14.821Z,29.97
2019-04-07T01:56:00.246Z,31.27
2019-04-07T01:58:50.965Z,33.73
2019-04-07T02:01:42.756Z,33.37
2019-04-07T02:04:32.508Z,31.83
2019-04-07T02:07:10.715Z,33.67
2019-04-07T02:09:56.497Z,33.93
2019-04-07T02:12:50.642Z,31.87
2019-04-07T02:15:30.598Z,29.70
2019-04-07T02:18:13.530Z,36.03
2019-04-07T02:21:15.379Z,31.17
2019-04-07T02:23:59.070Z,33.57
2019-04-07T02:26:35.726Z,33.97
2019-04-07T02:29:29.839Z,31.80
2019-04-07T02:32:17.433Z,36.27
2019-04-07T02:34:53.039Z,34.57
2019-04-07T02:37:40.850Z,33.13
2019-04-07T02:40:16.497Z,32.77
2019-04-07T02:43:03.024Z,27.27
2019-04-07T02:45:49.307Z,25.73
2019-04-07T02:48:48.881Z,27.07
2019-04-07T02:51:38.707Z,27.60
2019-04-07T02:54:15.484Z,26.37
2019-04-07T02:56:54.339Z,29.27
2019-04-07T02:59:42.783Z,31.37
2019-04-07T03:02:20.842Z,34.97
2019-04-07T03:04:58.723Z,28.27
2019-04-07T03:07:48.887Z,30.23
2019-04-07T03:10:36.605Z,35.47
2019-04-07T03:13:19.323Z,37.67
2019-04-07T03:16:06.234Z,38.40
2019-04-07T03:18:44.378Z,33.27
2019-04-07T03:21:31.397Z,35.13
2019-04-07T03:24:15.050Z,31.00
2019-04-07T03:27:02.583Z,38.57
2019-04-07T03:29:42.003Z,37.33
2019-04-07T03:32:25.974Z,36.00
2019-04-07T03:35:12.406Z,30.53
2019-04-07T03:38:04.666Z,36.70
2019-04-07T03:40:57.524Z,36.63
2019-04-07T03:43:35.854Z,34.83
2019-04-07T03:46:21.569Z,36.67
2019-04-07T03:49:01.909Z,34.60
2019-04-07T03:51:36.426Z,36.37
2019-04-07T03:54:12.194Z,33.77
2019-04-07T03:56:48.512Z,37.03
2019-04-07T03:59:42.554Z,38.10
2019-04-07T04:02:33.326Z,36.93
2019-04-07T04:05:14.729Z,35.13
2019-04-07T04:08:09.466Z,33.73
2019-04-07T04:10:43.580Z,36.83
2019-04-07T04:13:37.840Z,33.33
2019-04-07T04:16:08.856Z,31.77
2019-04-07T04:18:35.963Z,35.97
2019-04-07T04:21:03.605Z,42.53
2019-04-07T04:23:31.700Z,34.77
2019-04-07T04:25:59.184Z,31.27
2019-04-07T04:28:27.361Z,38.67
2019-04-07T04:30:56.545Z,31.50
2019-04-07T04:33:24.148Z,33.83
2019-04-07T04:35:51.876Z,34.60
2019-04-07T04:38:20.091Z,34.67
2019-04-07T04:40:48.070Z,35.27
2019-04-07T04:43:15.645Z,31.67
2019-04-07T04:45:43.010Z,31.57
2019-04-07T04:48:10.389Z,33.40
2019-04-07T04:50:38.461Z,26.67
2019-04-07T04:53:06.293Z,29.43
2019-04-07T04:55:33.821Z,33.90
2019-04-07T04:58:02.069Z,31.30
2019-04-07T05:00:29.513Z,36.07
2019-04-07T05:02:57.188Z,30.63
2019-04-07T05:05:25.520Z,34.20
2019-04-07T05:07:59.067Z,30.83
2019-04-07T05:10:22.287Z,32.90
2019-04-07T05:12:50.374Z,32.43
2019-04-07T05:15:17.879Z,34.27
2019-04-07T05:17:45.381Z,31.87
2019-04-07T05:20:13.442Z,32.90
2019-04-07T05:22:41.230Z,34.77
2019-04-07T05:25:08.606Z,34.63
2019-04-07T05:27:35.997Z,29.20
2019-04-07T05:30:05.509Z,32.57
2019-04-07T05:32:33.387Z,37.93
2019-04-07T05:35:01.079Z,33.53
2019-04-07T05:37:30.485Z,36.23
2019-04-07T05:39:57.978Z,35.07
2019-04-07T05:42:25.581Z,34.07
2019-04-07T05:44:52.881Z,40.00
2019-04-07T05:47:21.280Z,33.80
2019-04-07T05:49:48.768Z,37.30
2019-04-07T05:52:16.206Z,39.80
2019-04-07T05:54:43.867Z,38.90
2019-04-07T05:57:11.892Z,38.23
2019-04-07T05:59:39.881Z,37.47
2019-04-07T06:02:08.974Z,39.23
2019-04-07T06:04:36.731Z,37.97
2019-04-07T06:07:04.607Z,38.70
2019-04-07T06:09:33.774Z,38.33
2019-04-07T06:12:03.033Z,42.93
2019-04-07T06:14:30.391Z,39.27
2019-04-07T06:16:57.807Z,37.67
2019-04-07T06:19:25.044Z,35.83
2019-04-07T06:21:52.696Z,37.80
2019-04-07T06:24:22.234Z,39.67
2019-04-07T06:26:50.278Z,38.20
2019-04-07T06:29:18.298Z,35.57
2019-04-07T06:31:45.602Z,40.93
2019-04-07T06:34:12.831Z,40.70
2019-04-07T06:36:40.604Z,44.03
2019-04-07T06:39:08.272Z,38.77
2019-04-07T06:41:36.711Z,40.70
2019-04-07T06:44:11.945Z,36.50
2019-04-07T06:46:42.409Z,37.57
2019-04-07T06:49:29.637Z,39.00
2019-04-07T06:52:14.779Z,39.80
2019-04-07T06:55:07.701Z,40.50
2019-04-07T06:58:00.525Z,45.10
2019-04-07T07:00:47.697Z,45.17
2019-04-07T07:03:36.037Z,41.90
2019-04-07T07:06:11.059Z,44.77
2019-04-07T07:08:57.317Z,40.53
2019-04-07T07:11:44.265Z,41.37
2019-04-07T07:14:43.731Z,41.90
2019-04-07T07:17:32.317Z,42.03
2019-04-07T07:20:28.790Z,37.43
2019-04-07T07:23:00.696Z,42.20
2019-04-07T07:25:29.819Z,45.37
2019-04-07T07:27:57.765Z,48.10
2019-04-07T07:30:25.196Z,40.03
2019-04-07T07:32:52.392Z,42.77
2019-04-07T07:35:19.903Z,44.30
2019-04-07T07:37:47.598Z,52.07
2019-04-07T07:40:18.040Z,41.50
2019-04-07T07:42:46.105Z,44.57
2019-04-07T07:45:14.113Z,44.50
2019-04-07T07:47:42.622Z,40.00
2019-04-07T07:50:10.307Z,43.27
2019-04-07T07:52:37.746Z,42.67
2019-04-07T07:55:05.806Z,49.60
2019-04-07T07:57:33.835Z,43.37
2019-04-07T08:00:05.131Z,49.37
2019-04-07T08:02:31.919Z,51.40
2019-04-07T08:04:59.351Z,47.53
2019-04-07T08:07:26.914Z,54.40
2019-04-07T08:09:55.636Z,47.63
2019-04-07T08:12:23.744Z,44.37
2019-04-07T08:14:55.082Z,48.73
2019-04-07T08:17:20.620Z,47.17
2019-04-07T08:19:48.034Z,45.53
2019-04-07T08:22:26.534Z,42.07
2019-04-07T08:24:49.373Z,43.20
2019-04-07T08:27:14.972Z,47.20
2019-04-07T08:29:42.411Z,40.83
2019-04-07T08:32:11.101Z,39.73
2019-04-07T08:34:38.802Z,39.17
2019-04-07T08:37:06.095Z,39.93
2019-04-07T08:39:36.037Z,40.77
2019-04-07T08:42:07.621Z,40.10
2019-04-07T08:44:31.944Z,38.03
2019-04-07T08:46:59.232Z,46.50
2019-04-07T08:49:26.386Z,37.33
2019-04-07T08:51:53.987Z,41.13
2019-04-07T08:54:21.509Z,38.50
2019-04-07T08:56:48.822Z,39.67
2019-04-07T08:59:17.223Z,39.60
2019-04-07T09:01:44.735Z,38.23
2019-04-07T09:04:15.096Z,33.67
2019-04-07T09:06:41.148Z,36.50
2019-04-07T09:09:09.075Z,47.63
2019-04-07T09:11:39.714Z,36.17
2019-04-07T09:14:07.966Z,40.80
2019-04-07T09:17:10.583Z,36.93
2019-04-07T09:19:55.401Z,37.67
2019-04-07T09:22:30.747Z,34.67
2019-04-07T09:25:19.425Z,33.30
2019-04-07T09:27:51.350Z,32.83
2019-04-07T09:30:39.105Z,34.73
2019-04-07T09:33:15.992Z,37.17
2019-04-07T09:36:03.652Z,37.50
2019-04-07T09:38:56.981Z,30.60
2019-04-07T09:41:43.858Z,30.47
2019-04-07T09:44:26.528Z,30.70
2019-04-07T09:47:05.361Z,32.90
2019-04-07T09:50:01.826Z,35.17
2019-04-07T09:52:52.341Z,30.20
2019-04-07T09:55:32.074Z,29.57
2019-04-07T09:58:26.152Z,33.23
2019-04-07T10:01:20.774Z,31.47
2019-04-07T10:04:12.053Z,32.43
2019-04-07T10:07:01.201Z,27.93
2019-04-07T10:09:43.608Z,27.37
2019-04-07T10:12:29.948Z,28.77
2019-04-07T10:17:51.767Z,28.83
2019-04-07T10:20:37.395Z,31.40
2019-04-07T10:23:23.171Z,29.87
2019-04-07T10:29:04.461Z,29.00
2019-04-07T10:32:03.471Z,31.10
2019-04-07T10:35:01.051Z,33.40
2019-04-07T10:38:00.805Z,30.30
2019-04-07T10:40:49.147Z,30.93
2019-04-07T10:43:39.304Z,30.57
2019-04-07T10:46:24.839Z,31.63
2019-04-07T10:49:11.816Z,26.80
2019-04-07T10:52:07.651Z,27.17
2019-04-07T10:54:46.245Z,26.63
2019-04-07T10:57:23.868Z,26.93
2019-04-07T11:00:16.303Z,25.87
2019-04-07T11:03:12.267Z,25.53
2019-04-07T11:05:58.204Z,25.43
2019-04-07T11:08:37.579Z,26.03
2019-04-07T11:11:23.180Z,21.90
2019-04-07T11:14:04.842Z,26.23
2019-04-07T11:16:49.948Z,26.50
2019-04-07T11:19:38.141Z,21.00
2019-04-07T11:22:14.915Z,19.70
2019-04-07T11:25:16.892Z,21.83
2019-04-07T11:28:08.894Z,18.43
2019-04-07T11:31:03.849Z,17.27
2019-04-07T11:33:47.042Z,16.53
2019-04-07T11:36:31.133Z,18.13
2019-04-07T11:39:27.467Z,14.73
2019-04-07T11:44:46.801Z,15.20
2019-04-07T11:47:23.132Z,15.80
2019-04-07T11:50:16.770Z,18.87
2019-04-07T11:52:56.211Z,21.17
2019-04-07T11:55:34.499Z,14.93
2019-04-07T11:58:17.761Z,13.60
2019-04-07T12:00:53.920Z,19.23
2019-04-07T12:03:40.427Z,15.03
2019-04-07T12:06:33.249Z,14.90
2019-04-07T12:09:19.601Z,16.87
2019-04-07T12:11:59.309Z,16.07
2019-04-07T12:14:52.178Z,13.50
2019-04-07T12:17:33.971Z,14.97
2019-04-07T12:20:08.228Z,13.57
2019-04-07T12:22:48.003Z,21.63
2019-04-07T12:25:26.745Z,14.07
2019-04-07T12:28:15.873Z,18.40
2019-04-07T12:30:51.269Z,13.13
2019-04-07T12:33:37.482Z,11.17
2019-04-07T12:36:23.471Z,13.97
2019-04-07T12:39:06.246Z,11.83
2019-04-07T12:41:43.700Z,12.83
2019-04-07T12:44:20.092Z,15.80
2019-04-07T12:47:19.215Z,14.57
2019-04-07T12:50:19.715Z,11.50
2019-04-07T12:53:06.864Z,16.17
2019-04-07T12:56:00.986Z,15.47
2019-04-07T12:58:36.902Z,12.77
2019-04-07T13:01:19.736Z,16.30
2019-04-07T13:03:55.827Z,13.90
2019-04-07T13:06:44.252Z,15.53
2019-04-07T13:09:33.091Z,15.73
2019-04-07T13:12:20.278Z,14.50
2019-04-07T13:15:11.015Z,14.03
2019-04-07T13:17:44.968Z,14.00
2019-04-07T13:20:44.195Z,13.90
2019-04-07T13:23:22.286Z,13.60
2019-04-07T13:26:15.357Z,16.27
2019-04-07T13:29:05.309Z,18.33
2019-04-07T13:31:57.486Z,14.50
2019-04-07T13:34:41.386Z,13.50
2019-04-07T13:37:33.803Z,14.60
2019-04-07T13:40:24.116Z,15.80
2019-04-07T13:43:16.620Z,15.50
2019-04-07T13:46:17.482Z,13.07
2019-04-07T13:49:00.131Z,16.87
2019-04-07T13:51:36.602Z,19.33
2019-04-07T13:54:16.971Z,18.23
2019-04-07T13:57:05.600Z,19.07
2019-04-07T14:00:01.695Z,17.07
2019-04-07T14:02:46.014Z,18.33
2019-04-07T14:05:24.929Z,17.73
2019-04-07T14:08:14.936Z,20.00
2019-04-07T14:10:50.681Z,15.30
2019-04-07T14:13:52.315Z,17.87
2019-04-07T14:16:46.456Z,17.73
2019-04-07T14:19:40.344Z,16.63
2019-04-07T14:22:23.379Z,15.90
2019-04-07T14:25:16.757Z,17.23
2019-04-07T14:27:54.806Z,18.57
2019-04-07T14:30:54.238Z,17.50
2019-04-07T14:33:41.253Z,18.13
2019-04-07T14:36:17.376Z,17.33
2019-04-07T14:39:04.234Z,19.03
2019-04-07T14:41:41.197Z,19.47
2019-04-07T14:44:40.207Z,15.10
2019-04-07T14:47:31.405Z,15.77
2019-04-07T14:50:07.879Z,17.37
2019-04-07T14:52:49.963Z,16.37
2019-04-07T14:55:36.837Z,17.97
2019-04-07T14:58:17.246Z,14.83
2019-04-07T15:00:54.710Z,13.73
2019-04-07T15:03:22.055Z,13.77
2019-04-07T15:05:50.627Z,14.00
2019-04-07T15:08:44.253Z,13.13
2019-04-07T15:11:29.740Z,13.93
2019-04-07T15:14:00.097Z,13.97
2019-04-07T15:16:27.381Z,12.07
2019-04-07T15:18:55.120Z,11.27
2019-04-07T15:21:23.816Z,12.03
2019-04-07T15:23:51.831Z,13.00
2019-04-07T15:26:19.297Z,10.90
2019-04-07T15:28:46.804Z,9.93
2019-04-07T15:31:17.492Z,10.83
2019-04-07T15:33:43.625Z,11.10
2019-04-07T15:36:10.888Z,11.23
2019-04-07T15:38:40.306Z,13.03
2019-04-07T15:41:09.872Z,9.70
2019-04-07T15:43:37.160Z,9.57
2019-04-07T15:46:05.395Z,11.27
2019-04-07T15:48:32.880Z,9.27
2019-04-07T15:51:02.513Z,11.90
2019-04-07T15:53:30.889Z,12.23
2019-04-07T15:56:03.032Z,13.17
2019-04-07T15:58:28.470Z,10.03
2019-04-07T16:00:56.921Z,15.50
2019-04-07T16:03:24.250Z,12.00
2019-04-07T16:05:52.313Z,15.57
2019-04-07T16:08:20.131Z,12.37
2019-04-07T16:10:47.793Z,12.30
2019-04-07T16:13:17.395Z,11.53
2019-04-07T16:15:46.346Z,14.33
2019-04-07T16:18:14.714Z,14.57
2019-04-07T16:20:42.004Z,13.00
2019-04-07T16:23:10.284Z,12.10
2019-04-07T16:25:40.223Z,13.57
2019-04-07T16:28:11.393Z,11.60
2019-04-07T16:30:36.383Z,13.40
2019-04-07T16:33:05.459Z,14.53
2019-04-07T16:35:32.854Z,16.07
2019-04-07T16:38:01.427Z,16.80
2019-04-07T16:40:30.269Z,15.87
2019-04-07T16:43:09.500Z,14.57
2019-04-07T16:45:27.196Z,18.77
2019-04-07T16:47:56.438Z,17.43
2019-04-07T16:50:23.814Z,16.33
2019-04-07T16:52:51.261Z,12.47
2019-04-07T16:55:33.022Z,13.20
2019-04-07T16:58:02.053Z,16.77
2019-04-07T17:00:29.405Z,16.60
2019-04-07T17:02:56.923Z,17.10
2019-04-07T17:05:24.852Z,17.03
2019-04-07T17:07:55.488Z,16.10
2019-04-07T17:10:22.944Z,16.30
2019-04-07T17:12:51.397Z,14.07
2019-04-07T17:15:19.136Z,16.30
2019-04-07T17:17:50.938Z,14.07
2019-04-07T17:20:16.073Z,14.17
2019-04-07T17:22:47.085Z,13.77
2019-04-07T17:25:12.862Z,14.83
2019-04-07T17:27:58.429Z,15.77
2019-04-07T17:30:26.213Z,16.67
2019-04-07T17:32:53.724Z,13.47
2019-04-07T17:35:21.303Z,16.27
2019-04-07T17:37:49.383Z,13.60
2019-04-07T17:40:18.577Z,16.20
2019-04-07T17:42:48.155Z,16.43
2019-04-07T17:45:40.704Z,14.60
2019-04-07T17:48:37.066Z,25.40
2019-04-07T17:51:20.353Z,16.30
2019-04-07T17:54:00.395Z,15.73
2019-04-07T17:56:42.818Z,16.67
2019-04-07T17:59:28.401Z,14.57
2019-04-07T18:02:28.047Z,17.33
2019-04-07T18:05:03.213Z,17.37
2019-04-07T18:07:42.810Z,15.67
2019-04-07T18:10:29.374Z,16.03
2019-04-07T18:13:39.518Z,14.93
2019-04-07T18:16:09.443Z,16.33
2019-04-07T18:19:05.755Z,15.77
2019-04-07T18:21:53.874Z,19.27
2019-04-07T18:24:41.133Z,20.57
2019-04-07T18:27:28.001Z,18.43
2019-04-07T18:30:29.830Z,16.97
2019-04-07T18:33:25.092Z,23.47
2019-04-07T18:35:58.308Z,19.67
2019-04-07T18:38:45.049Z,22.50
2019-04-07T18:41:35.714Z,18.37
2019-04-07T18:44:20.703Z,28.40
2019-04-07T18:47:05.672Z,30.07
2019-04-07T18:50:07.142Z,37.63
2019-04-07T18:52:48.584Z,38.43
2019-04-07T18:55:33.277Z,25.47
2019-04-07T18:58:36.255Z,31.70
2019-04-07T19:01:22.197Z,26.70
2019-04-07T19:04:24.943Z,21.00
2019-04-07T19:07:19.414Z,21.40
2019-04-07T19:10:04.392Z,22.67
2019-04-07T19:12:39.419Z,21.50
2019-04-07T19:15:17.848Z,22.90
2019-04-07T19:18:04.675Z,22.30
2019-04-07T19:20:48.348Z,25.87
2019-04-07T19:23:35.306Z,18.40
2019-04-07T19:26:34.722Z,17.70
2019-04-07T19:29:14.120Z,22.60
2019-04-07T19:32:03.890Z,21.77
2019-04-07T19:34:55.201Z,21.93
2019-04-07T19:37:42.246Z,24.97
2019-04-07T19:40:18.800Z,25.90
2019-04-07T19:43:14.647Z,21.70
2019-04-07T19:45:58.535Z,20.97
2019-04-07T19:48:43.854Z,21.23
2019-04-07T19:51:47.300Z,21.20
2019-04-07T19:54:29.240Z,23.73
2019-04-07T19:57:15.642Z,24.50
2019-04-07T20:00:13.112Z,19.90
2019-04-07T20:03:09.591Z,23.17
2019-04-07T20:05:56.215Z,21.27
2019-04-07T20:08:36.267Z,21.57
2019-04-07T20:11:28.471Z,22.37
2019-04-07T20:14:16.031Z,23.67
2019-04-07T20:16:53.485Z,24.07
2019-04-07T20:19:38.521Z,22.70
2019-04-07T20:22:23.140Z,22.20
2019-04-07T20:25:13.124Z,22.20
2019-04-07T20:27:47.851Z,22.90
2019-04-07T20:30:21.256Z,21.13
2019-04-07T20:33:13.838Z,20.70
2019-04-07T20:36:01.087Z,26.03
2019-04-07T20:38:51.211Z,21.03
2019-04-07T20:41:29.398Z,23.27
2019-04-07T20:44:08.528Z,20.27
2019-04-07T20:46:45.809Z,20.30
2019-04-07T20:49:30.260Z,20.43
2019-04-07T20:52:30.163Z,22.53
2019-04-07T20:55:19.785Z,22.63
2019-04-07T20:58:16.272Z,19.87
2019-04-07T21:01:00.585Z,20.80
2019-04-07T21:03:47.638Z,20.03
2019-04-07T21:06:30.435Z,18.40
2019-04-07T21:09:17.464Z,16.80
2019-04-07T21:11:58.725Z,18.07
2019-04-07T21:14:55.049Z,15.33
2019-04-07T21:17:45.002Z,16.57
2019-04-07T21:20:38.969Z,13.27
2019-04-07T21:23:32.811Z,14.23
2019-04-07T21:26:18.627Z,11.27
2019-04-07T21:29:14.921Z,12.47
2019-04-07T21:32:09.790Z,9.97
2019-04-07T21:35:11.486Z,12.10
2019-04-07T21:37:56.579Z,12.30
2019-04-07T21:40:43.666Z,10.80
2019-04-07T21:43:30.750Z,10.40
2019-04-07T21:46:14.010Z,11.00
2019-04-07T21:49:02.631Z,12.63
2019-04-07T21:52:02.546Z,10.20
2019-04-07T21:54:55.668Z,8.40
2019-04-07T21:57:40.722Z,8.77
2019-04-07T22:00:19.646Z,8.07
2019-04-07T22:03:23.949Z,11.07
2019-04-07T22:06:00.660Z,9.73
2019-04-07T22:09:00.318Z,8.63
2019-04-07T22:11:29.307Z,8.50
2019-04-07T22:13:57.538Z,9.27
2019-04-07T22:16:25.603Z,7.37
2019-04-07T22:18:54.231Z,9.60
2019-04-07T22:21:22.278Z,6.70
2019-04-07T22:23:50.701Z,6.90
2019-04-07T22:26:19.241Z,5.97
2019-04-07T22:28:48.268Z,8.43
2019-04-07T22:31:18.826Z,6.73
2019-04-07T22:33:46.618Z,7.03
2019-04-07T22:36:15.266Z,5.07
2019-04-07T22:38:43.247Z,5.93
2019-04-07T22:41:11.240Z,6.43
2019-04-07T22:43:39.234Z,4.87
2019-04-07T22:46:16.498Z,4.33
2019-04-07T22:48:36.880Z,4.87
2019-04-07T22:51:09.491Z,4.63
2019-04-07T22:53:33.421Z,3.80
2019-04-07T22:56:04.756Z,3.90
2019-04-07T22:58:30.064Z,3.80
2019-04-07T23:00:57.434Z,5.27
2019-04-07T23:03:25.969Z,2.97
2019-04-07T23:05:53.538Z,3.90
2019-04-07T23:08:20.889Z,3.30
2019-04-07T23:10:48.378Z,4.67
2019-04-07T23:13:15.708Z,2.67
2019-04-07T23:15:45.863Z,3.60
2019-04-07T23:18:12.672Z,2.53
2019-04-07T23:20:41.734Z,2.43
2019-04-07T23:23:09.228Z,2.10
2019-04-07T23:25:36.568Z,2.40
2019-04-07T23:28:03.786Z,3.33
2019-04-07T23:30:31.412Z,3.80
2019-04-07T23:32:58.929Z,3.47
2019-04-07T23:35:26.263Z,3.30
2019-04-07T23:37:53.452Z,3.77
2019-04-07T23:40:20.762Z,3.60
2019-04-07T23:42:48.771Z,3.90
2019-04-07T23:45:16.573Z,3.30
2019-04-07T23:47:44.865Z,3.40
2019-04-07T23:50:12.723Z,3.20
2019-04-07T23:52:39.954Z,4.00
2019-04-07T23:55:07.711Z,3.10
2019-04-07T23:57:34.947Z,3.13
